createdAt,value
2023-05-16T00:01:23.127Z,2.80
2023-05-16T00:04:12.918Z,3.38
2023-05-16T00:07:02.353Z,3.00
2023-05-16T00:09:51.681Z,3.25
2023-05-16T00:12:41.856Z,3.95
2023-05-16T00:15:31.479Z,2.78
2023-05-16T00:18:23.155Z,3.78
2023-05-16T00:21:12.884Z,2.73
2023-05-16T00:24:02.368Z,2.60
2023-05-16T00:26:51.747Z,3.00
2023-05-16T00:29:40.980Z,2.75
2023-05-16T00:32:30.315Z,3.03
2023-05-16T00:35:20.913Z,3.60
2023-05-16T00:38:11.820Z,3.17
2023-05-16T00:41:01.076Z,3.20
2023-05-16T00:43:51.219Z,3.05
2023-05-16T00:46:40.846Z,3.40
2023-05-16T00:49:30.954Z,3.15
2023-05-16T00:52:20.243Z,3.40
2023-05-16T00:55:11.822Z,3.17
2023-05-16T00:58:03.002Z,3.08
2023-05-16T01:00:52.493Z,3.10
2023-05-16T01:03:41.987Z,3.10
2023-05-16T01:06:34.980Z,3.40
2023-05-16T01:09:24.661Z,2.83
2023-05-16T01:12:29.635Z,3.25
2023-05-16T01:15:34.128Z,3.08
2023-05-16T01:18:39.950Z,3.30
2023-05-16T01:21:51.440Z,2.97
2023-05-16T01:25:01.281Z,3.08
2023-05-16T01:27:51.047Z,3.38
2023-05-16T01:30:42.729Z,3.40
2023-05-16T01:33:32.054Z,3.00
2023-05-16T01:36:48.872Z,3.28
2023-05-16T01:39:53.661Z,3.00
2023-05-16T01:42:48.376Z,3.17
2023-05-16T01:45:45.753Z,3.60
2023-05-16T01:48:44.568Z,3.17
2023-05-16T01:51:34.965Z,3.05
2023-05-16T01:54:27.620Z,2.92
2023-05-16T01:57:18.910Z,3.10
2023-05-16T02:00:09.374Z,2.80
2023-05-16T02:03:03.663Z,2.97
2023-05-16T02:05:53.462Z,2.70
2023-05-16T02:08:42.804Z,3.30
2023-05-16T02:11:32.055Z,3.03
2023-05-16T02:14:21.389Z,3.33
2023-05-16T02:17:10.969Z,3.00
2023-05-16T02:20:00.814Z,3.10
2023-05-16T02:22:51.099Z,3.10
2023-05-16T02:25:40.317Z,3.00
2023-05-16T02:28:32.222Z,3.05
2023-05-16T02:31:32.578Z,3.17
2023-05-16T02:34:22.157Z,2.83
2023-05-16T02:37:13.236Z,3.17
2023-05-16T02:40:02.897Z,2.85
2023-05-16T02:42:52.286Z,2.75
2023-05-16T02:45:42.036Z,2.47
2023-05-16T02:48:31.630Z,3.08
2023-05-16T02:51:23.874Z,2.83
2023-05-16T02:54:13.419Z,2.80
2023-05-16T02:57:02.728Z,3.00
2023-05-16T02:59:52.194Z,3.67
2023-05-16T03:02:41.840Z,3.47
2023-05-16T03:05:31.808Z,3.20
2023-05-16T03:08:21.834Z,4.53
2023-05-16T03:11:11.126Z,4.20
2023-05-16T03:14:02.604Z,4.50
2023-05-16T03:16:54.468Z,4.50
2023-05-16T03:19:43.838Z,4.50
2023-05-16T03:22:35.140Z,4.15
2023-05-16T03:25:25.265Z,4.10
2023-05-16T03:28:15.467Z,4.25
2023-05-16T03:31:05.281Z,4.10
2023-05-16T03:33:54.586Z,6.10
2023-05-16T03:36:44.117Z,5.70
2023-05-16T03:39:33.383Z,5.50
2023-05-16T03:42:22.757Z,6.00
2023-05-16T03:45:13.286Z,5.40
2023-05-16T03:48:02.784Z,6.05
2023-05-16T03:50:52.576Z,5.90
2023-05-16T03:53:42.626Z,5.90
2023-05-16T03:56:31.891Z,2.50
2023-05-16T03:59:21.505Z,2.58
2023-05-16T04:02:10.977Z,2.55
2023-05-16T04:05:00.754Z,2.50
2023-05-16T04:07:50.025Z,3.20
2023-05-16T04:10:39.498Z,3.55
2023-05-16T04:13:28.861Z,2.95
2023-05-16T04:16:18.254Z,2.80
2023-05-16T04:19:07.598Z,2.88
2023-05-16T04:21:57.047Z,2.60
2023-05-16T04:24:46.491Z,2.50
2023-05-16T04:27:35.876Z,2.45
2023-05-16T04:30:25.130Z,2.72
2023-05-16T04:33:14.534Z,2.35
2023-05-16T04:36:04.969Z,2.28
2023-05-16T04:38:57.753Z,2.47
2023-05-16T04:41:47.085Z,2.15
2023-05-16T04:44:36.628Z,2.58
2023-05-16T04:47:25.928Z,2.78
2023-05-16T04:50:16.075Z,2.65
2023-05-16T04:53:05.343Z,2.90
2023-05-16T04:55:54.825Z,2.75
2023-05-16T04:58:44.109Z,2.92
2023-05-16T05:01:33.739Z,2.80
2023-05-16T05:04:24.008Z,2.55
2023-05-16T05:07:13.300Z,2.75
2023-05-16T05:10:02.547Z,2.83
2023-05-16T05:12:51.880Z,2.72
2023-05-16T05:15:41.195Z,2.50
2023-05-16T05:18:30.597Z,4.07
2023-05-16T05:21:21.328Z,2.40
2023-05-16T05:24:10.715Z,2.40
2023-05-16T05:27:00.308Z,2.63
2023-05-16T05:29:49.656Z,2.20
2023-05-16T05:32:39.166Z,3.08
2023-05-16T05:35:28.799Z,2.80
2023-05-16T05:38:18.305Z,2.42
2023-05-16T05:41:08.236Z,2.40
2023-05-16T05:43:57.488Z,2.78
2023-05-16T05:46:47.344Z,2.45
2023-05-16T05:49:37.138Z,2.60
2023-05-16T05:52:26.667Z,2.63
2023-05-16T05:55:15.836Z,2.63
2023-05-16T05:58:07.035Z,3.00
2023-05-16T06:00:56.654Z,3.22
2023-05-16T06:03:46.104Z,2.83
2023-05-16T06:06:35.290Z,3.03
2023-05-16T06:09:24.645Z,3.45
2023-05-16T06:12:14.466Z,4.03
2023-05-16T06:15:04.683Z,2.67
2023-05-16T06:17:54.052Z,2.63
2023-05-16T06:20:43.370Z,3.00
2023-05-16T06:23:32.816Z,2.70
2023-05-16T06:26:23.865Z,3.13
2023-05-16T06:29:13.063Z,3.90
2023-05-16T06:32:02.657Z,2.88
2023-05-16T06:34:51.963Z,2.58
2023-05-16T06:37:42.971Z,2.72
2023-05-16T06:40:32.450Z,3.10
2023-05-16T06:43:21.847Z,2.72
2023-05-16T06:46:11.176Z,2.75
2023-05-16T06:49:00.568Z,2.60
2023-05-16T06:51:49.939Z,2.78
2023-05-16T06:54:39.335Z,2.85
2023-05-16T06:57:28.592Z,2.63
2023-05-16T07:00:18.613Z,2.83
2023-05-16T07:03:08.191Z,3.00
2023-05-16T07:05:58.325Z,3.45
2023-05-16T07:08:47.642Z,2.80
2023-05-16T07:11:37.049Z,3.08
2023-05-16T07:14:26.356Z,3.08
2023-05-16T07:17:16.334Z,2.90
2023-05-16T07:20:06.198Z,2.97
2023-05-16T07:22:55.710Z,2.97
2023-05-16T07:25:45.219Z,2.88
2023-05-16T07:28:34.824Z,3.92
2023-05-16T07:31:25.213Z,3.00
2023-05-16T07:34:14.566Z,3.10
2023-05-16T07:37:04.459Z,3.40
2023-05-16T07:39:53.833Z,2.70
2023-05-16T07:42:43.080Z,2.90
2023-05-16T07:45:32.678Z,2.63
2023-05-16T07:48:22.180Z,2.78
2023-05-16T07:51:11.545Z,2.92
2023-05-16T07:54:01.001Z,3.00
2023-05-16T07:56:50.329Z,2.70
2023-05-16T07:59:39.969Z,3.00
2023-05-16T08:02:31.855Z,2.88
2023-05-16T08:05:21.232Z,3.10
2023-05-16T08:08:10.699Z,3.03
2023-05-16T08:11:00.045Z,3.00
2023-05-16T08:13:49.855Z,2.90
2023-05-16T08:16:39.263Z,3.10
2023-05-16T08:19:28.860Z,2.97
2023-05-16T08:22:18.400Z,2.92
2023-05-16T08:25:09.170Z,2.85
2023-05-16T08:27:59.055Z,3.10
2023-05-16T08:30:48.921Z,3.33
2023-05-16T08:33:38.178Z,3.15
2023-05-16T08:36:27.554Z,2.70
2023-05-16T08:39:16.871Z,2.78
2023-05-16T08:42:06.624Z,2.72
2023-05-16T08:44:56.213Z,3.10
2023-05-16T08:47:46.858Z,2.97
2023-05-16T08:50:37.624Z,3.25
2023-05-16T08:53:42.203Z,3.05
2023-05-16T08:56:32.614Z,2.90
2023-05-16T08:59:22.569Z,3.03
2023-05-16T09:02:12.134Z,2.65
2023-05-16T09:05:01.629Z,3.00
2023-05-16T09:07:51.011Z,2.65
2023-05-16T09:10:40.360Z,3.03
2023-05-16T09:13:29.630Z,2.63
2023-05-16T09:16:21.172Z,2.78
2023-05-16T09:19:14.973Z,2.85
2023-05-16T09:22:04.592Z,2.90
2023-05-16T09:24:53.849Z,3.25
2023-05-16T09:27:43.469Z,3.17
2023-05-16T09:30:35.258Z,2.60
2023-05-16T09:33:25.161Z,2.92
2023-05-16T09:36:15.760Z,2.90
2023-05-16T09:39:05.161Z,2.80
2023-05-16T09:41:54.542Z,3.20
2023-05-16T09:44:54.148Z,3.13
2023-05-16T09:47:47.668Z,3.00
2023-05-16T09:50:38.731Z,2.83
2023-05-16T09:53:33.559Z,3.00
2023-05-16T09:56:22.959Z,3.35
2023-05-16T09:59:12.854Z,3.92
2023-05-16T10:02:02.852Z,3.00
2023-05-16T10:04:52.341Z,2.90
2023-05-16T10:07:42.431Z,2.90
2023-05-16T10:10:32.827Z,2.90
2023-05-16T10:13:33.021Z,3.20
2023-05-16T10:16:26.727Z,2.85
2023-05-16T10:19:18.437Z,3.00
2023-05-16T10:22:08.708Z,3.03
2023-05-16T10:25:14.144Z,2.88
2023-05-16T10:28:05.244Z,3.00
2023-05-16T10:30:56.074Z,2.97
2023-05-16T10:33:46.043Z,2.95
2023-05-16T10:36:36.220Z,3.35
2023-05-16T10:39:26.433Z,3.17
2023-05-16T10:42:19.396Z,3.13
2023-05-16T10:45:27.116Z,2.85
2023-05-16T10:48:16.794Z,2.80
2023-05-16T10:51:36.833Z,2.90
2023-05-16T10:54:36.437Z,2.50
2023-05-16T10:57:25.935Z,2.95
2023-05-16T11:00:24.442Z,3.33
2023-05-16T11:03:29.206Z,2.90
2023-05-16T11:06:24.883Z,3.25
2023-05-16T11:09:19.141Z,2.50
2023-05-16T11:12:11.976Z,2.80
2023-05-16T11:15:01.388Z,3.00
2023-05-16T11:17:50.973Z,2.70
2023-05-16T11:20:41.376Z,3.13
2023-05-16T11:23:30.736Z,2.70
2023-05-16T11:26:21.100Z,3.10
2023-05-16T11:29:10.545Z,3.55
2023-05-16T11:32:04.621Z,3.00
2023-05-16T11:34:55.534Z,4.18
2023-05-16T11:37:46.261Z,4.05
2023-05-16T11:40:36.038Z,2.95
2023-05-16T11:43:25.822Z,3.15
2023-05-16T11:46:16.239Z,2.65
2023-05-16T11:49:05.750Z,2.95
2023-05-16T11:51:58.611Z,3.08
2023-05-16T11:54:48.878Z,3.00
2023-05-16T11:57:45.116Z,3.05
2023-05-16T12:00:34.734Z,2.85
2023-05-16T12:03:25.192Z,2.92
2023-05-16T12:06:16.615Z,3.08
2023-05-16T12:09:12.020Z,3.30
2023-05-16T12:12:01.624Z,2.83
2023-05-16T12:14:51.478Z,2.92
2023-05-16T12:17:42.812Z,3.05
2023-05-16T12:20:32.375Z,2.70
2023-05-16T12:23:21.755Z,2.60
2023-05-16T12:26:11.122Z,2.60
2023-05-16T12:29:06.152Z,3.03
2023-05-16T12:31:55.678Z,2.83
2023-05-16T12:34:52.190Z,2.90
2023-05-16T12:37:41.738Z,3.05
2023-05-16T12:40:31.713Z,3.20
2023-05-16T12:43:25.076Z,3.20
2023-05-16T12:46:14.691Z,2.85
2023-05-16T12:49:06.770Z,2.85
2023-05-16T12:52:01.239Z,2.50
2023-05-16T12:54:50.526Z,3.03
2023-05-16T12:57:42.906Z,2.92
2023-05-16T13:00:33.276Z,3.15
2023-05-16T13:03:22.890Z,2.70
2023-05-16T13:06:12.339Z,2.55
2023-05-16T13:09:01.733Z,2.38
2023-05-16T13:11:51.845Z,2.58
2023-05-16T13:14:43.035Z,2.47
2023-05-16T13:17:33.388Z,2.72
2023-05-16T13:20:22.783Z,2.47
2023-05-16T13:23:12.078Z,2.45
2023-05-16T13:26:04.212Z,2.75
2023-05-16T13:28:54.295Z,2.70
2023-05-16T13:31:43.557Z,2.72
2023-05-16T13:34:33.348Z,2.22
2023-05-16T13:37:25.392Z,3.00
2023-05-16T13:40:14.794Z,2.22
2023-05-16T13:43:04.659Z,2.40
2023-05-16T13:45:54.520Z,3.88
2023-05-16T13:48:43.831Z,2.15
2023-05-16T13:51:33.136Z,2.60
2023-05-16T13:54:26.843Z,2.70
2023-05-16T13:57:16.198Z,2.55
2023-05-16T14:03:16.114Z,2.95
2023-05-16T14:06:05.802Z,3.47
2023-05-16T14:08:55.154Z,2.30
2023-05-16T14:11:44.488Z,2.17
2023-05-16T14:14:33.940Z,2.33
2023-05-16T14:17:23.586Z,2.60
2023-05-16T14:20:13.571Z,2.70
2023-05-16T14:23:02.910Z,2.58
2023-05-16T14:25:52.521Z,2.40
2023-05-16T14:28:42.271Z,2.60
2023-05-16T14:31:31.873Z,2.30
2023-05-16T14:34:21.134Z,2.35
2023-05-16T14:37:11.599Z,2.78
2023-05-16T14:40:01.998Z,2.58
2023-05-16T14:42:51.976Z,2.30
2023-05-16T14:45:41.421Z,2.60
2023-05-16T14:48:31.310Z,4.20
2023-05-16T14:51:20.633Z,4.57
2023-05-16T14:54:10.000Z,4.40
2023-05-16T14:57:01.101Z,4.32
2023-05-16T14:59:51.623Z,4.75
2023-05-16T15:02:40.965Z,4.68
2023-05-16T15:05:31.057Z,4.25
2023-05-16T15:08:20.673Z,4.20
2023-05-16T15:11:10.165Z,6.20
2023-05-16T15:13:59.599Z,4.55
2023-05-16T15:16:48.908Z,4.50
2023-05-16T15:19:38.254Z,6.32
2023-05-16T15:22:30.087Z,5.90
2023-05-16T15:25:19.975Z,6.68
2023-05-16T15:28:09.538Z,6.30
2023-05-16T15:30:58.874Z,6.38
2023-05-16T15:33:48.740Z,6.32
2023-05-16T15:36:38.120Z,6.68
2023-05-16T15:39:27.518Z,6.00
2023-05-16T15:42:16.893Z,7.00
2023-05-16T15:45:06.678Z,6.97
2023-05-16T15:47:55.976Z,6.97
2023-05-16T15:50:45.294Z,7.10
2023-05-16T15:53:34.758Z,2.20
2023-05-16T15:56:24.227Z,2.70
2023-05-16T15:59:13.564Z,2.45
2023-05-16T16:02:06.472Z,2.70
2023-05-16T16:04:55.937Z,2.58
2023-05-16T16:07:45.251Z,2.55
2023-05-16T16:10:34.588Z,2.13
2023-05-16T16:13:25.390Z,2.40
2023-05-16T16:16:14.808Z,2.20
2023-05-16T16:19:04.213Z,2.55
2023-05-16T16:21:53.580Z,2.08
2023-05-16T16:24:42.873Z,2.22
2023-05-16T16:27:32.172Z,2.60
2023-05-16T16:30:21.699Z,2.53
2023-05-16T16:33:10.971Z,2.40
2023-05-16T16:36:00.518Z,2.53
2023-05-16T16:38:49.988Z,2.60
2023-05-16T16:41:39.427Z,2.30
2023-05-16T16:44:28.772Z,2.40
2023-05-16T16:47:18.129Z,2.45
2023-05-16T16:50:08.904Z,2.53
2023-05-16T16:53:00.257Z,2.53
2023-05-16T16:55:49.478Z,2.33
2023-05-16T16:58:39.088Z,2.25
2023-05-16T17:01:30.058Z,2.55
2023-05-16T17:04:20.070Z,2.45
2023-05-16T17:07:09.651Z,2.70
2023-05-16T17:09:59.083Z,3.00
2023-05-16T17:12:50.747Z,2.75
2023-05-16T17:15:40.019Z,2.53
2023-05-16T17:18:29.332Z,2.80
2023-05-16T17:21:18.835Z,2.50
2023-05-16T17:24:09.124Z,2.58
2023-05-16T17:26:58.674Z,2.53
2023-05-16T17:29:48.015Z,2.40
2023-05-16T17:32:37.523Z,2.97
2023-05-16T17:35:27.343Z,2.60
2023-05-16T17:38:16.884Z,2.42
2023-05-16T17:41:06.412Z,2.47
2023-05-16T17:43:55.947Z,2.65
2023-05-16T17:46:45.377Z,2.70
2023-05-16T17:49:35.225Z,3.40
2023-05-16T17:52:27.857Z,2.63
2023-05-16T17:55:17.237Z,2.95
2023-05-16T17:58:07.899Z,2.40
2023-05-16T18:00:57.287Z,2.42
2023-05-16T18:03:46.654Z,2.90
2023-05-16T18:06:38.674Z,2.35
2023-05-16T18:09:28.070Z,2.83
2023-05-16T18:12:17.541Z,2.88
2023-05-16T18:15:07.825Z,2.90
2023-05-16T18:17:57.209Z,2.95
2023-05-16T18:20:47.397Z,2.47
2023-05-16T18:23:37.564Z,2.30
2023-05-16T18:26:29.065Z,2.53
2023-05-16T18:29:18.456Z,2.60
2023-05-16T18:32:08.106Z,3.13
2023-05-16T18:34:57.709Z,2.67
2023-05-16T18:37:47.104Z,2.65
2023-05-16T18:40:37.358Z,2.50
2023-05-16T18:43:26.832Z,2.83
2023-05-16T18:46:18.835Z,2.78
2023-05-16T18:49:08.130Z,2.63
2023-05-16T18:51:57.585Z,2.95
2023-05-16T18:54:46.945Z,3.05
2023-05-16T18:57:36.524Z,3.00
2023-05-16T19:00:26.129Z,3.05
2023-05-16T19:03:16.429Z,2.70
2023-05-16T19:06:05.888Z,2.10
2023-05-16T19:08:55.251Z,2.63
2023-05-16T19:11:45.878Z,2.45
2023-05-16T19:14:35.208Z,2.80
2023-05-16T19:17:24.680Z,2.90
2023-05-16T19:20:14.196Z,2.60
2023-05-16T19:23:04.684Z,2.60
2023-05-16T19:25:54.623Z,2.65
2023-05-16T19:28:43.963Z,3.10
2023-05-16T19:31:33.423Z,2.53
2023-05-16T19:34:23.322Z,3.53
2023-05-16T19:37:12.713Z,2.70
2023-05-16T19:40:02.085Z,2.53
2023-05-16T19:42:51.682Z,2.45
2023-05-16T19:45:41.015Z,2.60
2023-05-16T19:48:30.475Z,2.65
2023-05-16T19:51:29.517Z,2.88
2023-05-16T19:54:26.909Z,2.25
2023-05-16T19:57:16.234Z,2.38
2023-05-16T20:00:06.512Z,2.35
2023-05-16T20:03:01.722Z,2.50
2023-05-16T20:05:51.322Z,2.50
2023-05-16T20:08:40.620Z,2.65
2023-05-16T20:11:30.502Z,2.42
2023-05-16T20:14:19.823Z,2.67
2023-05-16T20:17:09.203Z,2.72
2023-05-16T20:19:58.501Z,2.85
2023-05-16T20:22:47.927Z,2.60
2023-05-16T20:25:38.431Z,3.92
2023-05-16T20:28:27.773Z,2.88
2023-05-16T20:31:17.044Z,2.53
2023-05-16T20:34:06.526Z,2.70
2023-05-16T20:36:55.878Z,2.70
2023-05-16T20:39:49.585Z,2.92
2023-05-16T20:42:39.546Z,3.15
2023-05-16T20:45:31.368Z,3.85
2023-05-16T20:48:20.723Z,7.53
2023-05-16T20:51:10.134Z,4.72
2023-05-16T20:53:59.366Z,4.60
2023-05-16T20:56:48.756Z,3.72
2023-05-16T20:59:40.996Z,2.90
2023-05-16T21:02:30.797Z,4.07
2023-05-16T21:05:25.628Z,4.72
2023-05-16T21:08:15.278Z,4.70
2023-05-16T21:11:04.592Z,4.88
2023-05-16T21:13:53.935Z,5.30
2023-05-16T21:16:43.148Z,4.38
2023-05-16T21:19:35.687Z,3.00
2023-05-16T21:22:25.157Z,3.25
2023-05-16T21:25:14.832Z,2.97
2023-05-16T21:28:04.681Z,5.18
2023-05-16T21:30:54.352Z,3.45
2023-05-16T21:33:43.739Z,2.85
2023-05-16T21:36:33.392Z,3.13
2023-05-16T21:39:22.737Z,4.40
2023-05-16T21:42:12.106Z,7.18
2023-05-16T21:45:01.425Z,3.88
2023-05-16T21:47:51.005Z,4.00
2023-05-16T21:50:40.411Z,3.70
2023-05-16T21:53:29.762Z,4.50
2023-05-16T21:56:19.791Z,6.00
2023-05-16T21:59:09.139Z,6.40
2023-05-16T22:01:58.420Z,27.75
2023-05-16T22:04:47.806Z,10.55
2023-05-16T22:07:37.816Z,4.20
2023-05-16T22:10:27.392Z,4.78
2023-05-16T22:13:16.927Z,4.70
2023-05-16T22:16:06.746Z,5.05
2023-05-16T22:18:56.199Z,5.45
2023-05-16T22:21:45.704Z,4.15
2023-05-16T22:24:35.327Z,6.05
2023-05-16T22:27:24.661Z,3.80
2023-05-16T22:30:14.212Z,3.90
2023-05-16T22:33:04.767Z,4.93
2023-05-16T22:35:54.947Z,3.78
2023-05-16T22:38:44.226Z,3.50
2023-05-16T22:41:34.288Z,3.28
2023-05-16T22:44:23.597Z,3.83
2023-05-16T22:47:12.856Z,2.97
2023-05-16T22:50:02.272Z,3.03
2023-05-16T22:52:51.619Z,4.13
2023-05-16T22:55:41.016Z,2.50
2023-05-16T22:58:30.291Z,4.03
2023-05-16T23:01:19.686Z,3.35
2023-05-16T23:04:09.124Z,3.08
2023-05-16T23:06:58.636Z,4.97
2023-05-16T23:09:47.958Z,4.15
2023-05-16T23:12:37.309Z,3.25
2023-05-16T23:15:26.934Z,2.90
2023-05-16T23:18:16.525Z,4.70
2023-05-16T23:21:05.934Z,3.05
2023-05-16T23:23:55.370Z,2.90
2023-05-16T23:26:44.682Z,2.75
2023-05-16T23:29:34.025Z,4.30
2023-05-16T23:32:23.412Z,3.40
2023-05-16T23:35:12.993Z,4.05
2023-05-16T23:38:02.500Z,5.22
2023-05-16T23:40:52.071Z,14.85
2023-05-16T23:43:41.392Z,18.30
2023-05-16T23:46:30.731Z,17.00
2023-05-16T23:49:20.304Z,16.75
2023-05-16T23:52:09.663Z,2.78
2023-05-16T23:54:59.285Z,2.60
2023-05-16T23:57:48.606Z,3.05
